createdAt,value
2018-12-10T00:02:43.443Z,4.30
2018-12-10T00:07:47.538Z,4.30
2018-12-10T00:12:51.596Z,4.40
2018-12-10T00:17:55.676Z,4.30
2018-12-10T00:22:59.746Z,4.40
2018-12-10T00:28:03.879Z,4.80
2018-12-10T00:33:07.959Z,5.00
2018-12-10T00:38:12.022Z,4.70
2018-12-10T00:43:16.080Z,4.50
2018-12-10T00:48:20.194Z,4.80
2018-12-10T00:53:24.271Z,5.00
2018-12-10T00:58:28.388Z,5.10
2018-12-10T01:03:32.502Z,5.30
2018-12-10T01:08:36.563Z,4.70
2018-12-10T01:13:40.686Z,4.30
2018-12-10T01:18:44.735Z,4.40
2018-12-10T01:23:48.836Z,4.60
2018-12-10T01:28:52.908Z,4.60
2018-12-10T01:33:56.988Z,4.50
2018-12-10T01:39:01.177Z,4.50
2018-12-10T01:44:05.505Z,4.50
2018-12-10T01:49:09.561Z,4.60
2018-12-10T01:54:13.620Z,4.70
2018-12-10T01:59:17.695Z,4.70
2018-12-10T02:04:21.735Z,4.70
2018-12-10T02:09:25.795Z,4.70
2018-12-10T02:14:29.909Z,4.70
2018-12-10T02:19:34.059Z,4.70
2018-12-10T02:24:38.161Z,4.70
2018-12-10T02:29:42.215Z,4.70
2018-12-10T02:34:46.352Z,4.70
2018-12-10T02:39:50.541Z,4.70
2018-12-10T02:44:54.629Z,4.80
2018-12-10T02:49:59.044Z,4.80
2018-12-10T02:55:03.118Z,5.00
2018-12-10T03:00:08.138Z,4.90
2018-12-10T03:05:12.574Z,4.80
2018-12-10T03:10:16.642Z,4.90
2018-12-10T03:15:20.769Z,4.70
2018-12-10T03:20:24.966Z,4.50
2018-12-10T03:25:29.048Z,4.40
2018-12-10T03:30:33.129Z,4.50
2018-12-10T03:35:37.197Z,4.50
2018-12-10T03:40:41.264Z,4.50
2018-12-10T03:45:45.349Z,4.50
2018-12-10T03:50:49.460Z,4.40
2018-12-10T03:55:53.509Z,4.40
2018-12-10T04:00:57.639Z,4.40
2018-12-10T04:06:01.759Z,4.30
2018-12-10T04:11:05.881Z,4.40
2018-12-10T04:16:10.479Z,4.30
2018-12-10T04:21:14.615Z,4.00
2018-12-10T04:26:18.689Z,3.90
2018-12-10T04:31:22.777Z,3.90
2018-12-10T04:36:26.844Z,4.20
2018-12-10T04:41:30.934Z,4.30
2018-12-10T04:46:35.051Z,4.00
2018-12-10T04:51:39.160Z,3.80
2018-12-10T04:56:43.256Z,3.80
2018-12-10T05:01:47.348Z,3.70
2018-12-10T05:06:51.420Z,3.70
2018-12-10T05:11:55.522Z,3.80
2018-12-10T05:16:59.606Z,4.00
2018-12-10T05:22:03.711Z,4.00
2018-12-10T05:27:07.788Z,3.70
2018-12-10T05:32:11.866Z,3.40
2018-12-10T05:37:15.950Z,3.40
2018-12-10T05:42:20.030Z,3.50
2018-12-10T05:47:24.207Z,3.50
2018-12-10T05:52:28.512Z,3.40
2018-12-10T05:57:32.582Z,3.30
2018-12-10T06:02:36.682Z,3.40
2018-12-10T06:07:40.858Z,3.80
2018-12-10T06:12:44.890Z,4.00
2018-12-10T06:17:48.931Z,4.10
2018-12-10T06:22:53.053Z,3.90
2018-12-10T06:27:57.139Z,3.80
2018-12-10T06:33:01.621Z,3.70
2018-12-10T06:38:05.722Z,3.70
2018-12-10T06:43:09.782Z,3.80
2018-12-10T06:48:13.875Z,3.90
2018-12-10T06:53:17.971Z,4.10
2018-12-10T06:58:22.050Z,3.90
2018-12-10T07:03:26.121Z,3.80
2018-12-10T07:08:30.266Z,3.80
2018-12-10T07:13:34.380Z,3.70
2018-12-10T07:18:38.499Z,3.50
2018-12-10T07:23:42.640Z,3.40
2018-12-10T07:28:46.720Z,3.20
2018-12-10T07:33:50.813Z,3.20
2018-12-10T07:38:54.890Z,3.30
2018-12-10T07:43:58.959Z,3.60
2018-12-10T07:49:09.539Z,3.60
2018-12-10T07:54:13.650Z,3.60
2018-12-10T07:59:17.754Z,3.50
2018-12-10T08:04:21.830Z,3.50
2018-12-10T08:09:25.910Z,3.50
2018-12-10T08:14:30.022Z,3.40
2018-12-10T08:19:34.158Z,3.40
2018-12-10T08:24:38.260Z,3.60
2018-12-10T08:29:42.350Z,3.80
2018-12-10T08:34:46.495Z,3.90
2018-12-10T08:39:57.166Z,3.90
2018-12-10T08:45:01.241Z,3.90
2018-12-10T08:50:06.947Z,3.70
2018-12-10T08:55:11.468Z,3.50
2018-12-10T09:00:15.550Z,3.30
2018-12-10T09:05:19.665Z,3.20
2018-12-10T09:10:23.971Z,3.10
2018-12-10T09:15:28.102Z,3.20
2018-12-10T09:20:32.218Z,3.50
2018-12-10T09:25:36.284Z,3.90
2018-12-10T09:30:40.459Z,4.20
2018-12-10T09:35:44.558Z,4.30
2018-12-10T09:40:48.646Z,4.30
2018-12-10T09:45:52.723Z,4.30
2018-12-10T09:50:56.801Z,4.50
2018-12-10T09:56:01.014Z,4.70
2018-12-10T10:01:08.139Z,5.00
2018-12-10T10:06:12.244Z,4.80
2018-12-10T10:11:16.644Z,4.60
2018-12-10T10:16:20.745Z,4.50
2018-12-10T10:21:24.814Z,4.50
2018-12-10T10:26:28.926Z,4.40
2018-12-10T10:31:33.227Z,4.40
2018-12-10T10:36:37.324Z,4.60
2018-12-10T10:41:41.417Z,4.80
2018-12-10T10:46:45.530Z,5.10
2018-12-10T10:51:49.596Z,5.20
2018-12-10T10:56:53.787Z,5.20
2018-12-10T11:04:05.811Z,5.30
2018-12-10T11:09:15.295Z,5.50
2018-12-10T11:14:16.212Z,5.90
2018-12-10T11:19:20.346Z,5.70
2018-12-10T11:24:24.466Z,5.60
2018-12-10T11:29:28.578Z,5.50
2018-12-10T11:34:32.747Z,5.50
2018-12-10T11:39:36.935Z,5.50
2018-12-10T11:44:41.317Z,5.60
2018-12-10T11:49:45.415Z,5.80
2018-12-10T11:54:49.487Z,5.90
2018-12-10T11:59:53.558Z,6.20
2018-12-10T12:04:57.633Z,6.30
2018-12-10T12:10:01.710Z,6.10
2018-12-10T12:15:07.575Z,6.20
2018-12-10T12:20:11.712Z,6.30
2018-12-10T12:25:15.759Z,6.30
2018-12-10T12:30:20.088Z,6.10
2018-12-10T12:35:24.655Z,6.00
2018-12-10T12:40:28.696Z,6.10
2018-12-10T12:45:32.739Z,6.10
2018-12-10T12:50:36.867Z,6.00
2018-12-10T12:55:40.926Z,5.80
2018-12-10T13:00:44.974Z,5.70
2018-12-10T13:05:49.022Z,5.70
2018-12-10T13:10:58.522Z,5.70
2018-12-10T13:16:04.340Z,5.80
2018-12-10T13:21:08.658Z,5.90
2018-12-10T13:26:12.706Z,5.90
2018-12-10T13:31:16.759Z,5.80
2018-12-10T13:36:20.813Z,5.80
2018-12-10T13:41:25.866Z,5.90
2018-12-10T13:46:29.927Z,6.20
2018-12-10T13:51:34.132Z,6.30
2018-12-10T13:57:05.970Z,6.30
2018-12-10T14:02:44.629Z,6.20
2018-12-10T14:08:27.954Z,6.00
2018-12-10T14:44:07.518Z,4.60
2018-12-10T14:49:45.647Z,4.70
2018-12-10T15:01:07.959Z,4.90
2018-12-10T15:06:46.102Z,5.00
2018-12-10T15:17:57.054Z,5.10
2018-12-10T15:23:11.036Z,5.10
2018-12-10T15:28:36.552Z,4.90
2018-12-10T15:34:23.674Z,4.80
2018-12-10T16:05:34.401Z,4.90
2018-12-10T16:11:06.010Z,4.70
2018-12-10T16:16:33.949Z,4.70
2018-12-10T16:56:13.012Z,5.00
2018-12-10T17:02:06.663Z,5.20
2018-12-10T17:12:44.237Z,5.20
2018-12-10T17:19:00.167Z,5.10
2018-12-10T17:31:54.717Z,4.90
2018-12-10T17:43:02.730Z,4.60
2018-12-10T18:00:30.552Z,5.10
2018-12-10T19:03:17.370Z,4.50
2018-12-10T20:05:04.878Z,4.00
2018-12-10T20:17:42.151Z,4.70
2018-12-10T20:41:11.512Z,4.50
2018-12-10T20:46:25.303Z,4.50
2018-12-10T20:52:10.018Z,4.60
2018-12-10T20:57:48.146Z,4.70
2018-12-10T21:19:25.790Z,5.40
2018-12-10T21:30:00.076Z,5.40
2018-12-10T21:35:24.288Z,5.30
2018-12-10T22:10:04.296Z,4.80
2018-12-10T22:27:34.397Z,4.90
2018-12-10T22:36:31.058Z,4.90
2018-12-10T22:54:52.683Z,4.60
2018-12-10T23:53:37.843Z,4.60
